sensor_id;sensor_type;location;lat;lon;timestamp;pressure;altitude;pressure_sealevel;temperature;humidity
68859;BME280;55864;49.238;8.092;2023-02-01T00:01:09;100144.28;;;4.48;97.39
68859;BME280;55864;49.238;8.092;2023-02-01T00:03:10;100151.25;;;4.48;96.91
68859;BME280;55864;49.238;8.092;2023-02-01T00:05:13;100145.97;;;4.49;96.96
68859;BME280;55864;49.238;8.092;2023-02-01T00:07:14;100147.66;;;4.50;96.99
68859;BME280;55864;49.238;8.092;2023-02-01T00:09:14;100148.47;;;4.51;97.56
68859;BME280;55864;49.238;8.092;2023-02-01T00:11:15;100150.97;;;4.52;97.53
68859;BME280;55864;49.238;8.092;2023-02-01T00:13:15;100149.31;;;4.51;97.40
68859;BME280;55864;49.238;8.092;2023-02-01T00:15:16;100145.06;;;4.50;97.46
68859;BME280;55864;49.238;8.092;2023-02-01T00:17:16;100154.41;;;4.53;97.70
68859;BME280;55864;49.238;8.092;2023-02-01T00:19:17;100153.50;;;4.54;96.88
68859;BME280;55864;49.238;8.092;2023-02-01T00:21:20;100150.97;;;4.52;96.92
68859;BME280;55864;49.238;8.092;2023-02-01T00:23:21;100138.06;;;4.51;97.70
68859;BME280;55864;49.238;8.092;2023-02-01T00:25:21;100132.03;;;4.50;97.71
68859;BME280;55864;49.238;8.092;2023-02-01T00:27:22;100131.94;;;4.52;97.25
68859;BME280;55864;49.238;8.092;2023-02-01T00:29:22;100130.00;;;4.55;97.23
68859;BME280;55864;49.238;8.092;2023-02-01T00:31:23;100116.72;;;4.60;97.31
68859;BME280;55864;49.238;8.092;2023-02-01T00:33:23;100110.59;;;4.61;97.35
68859;BME280;55864;49.238;8.092;2023-02-01T00:35:24;100106.25;;;4.61;96.51
68859;BME280;55864;49.238;8.092;2023-02-01T00:37:26;100108.75;;;4.63;97.19
68859;BME280;55864;49.238;8.092;2023-02-01T00:39:26;100108.00;;;4.61;96.84
68859;BME280;55864;49.238;8.092;2023-02-01T00:41:27;100112.19;;;4.63;96.27
68859;BME280;55864;49.238;8.092;2023-02-01T00:43:27;100104.31;;;4.65;96.02
68859;BME280;55864;49.238;8.092;2023-02-01T00:45:28;100115.47;;;4.67;96.64
68859;BME280;55864;49.238;8.092;2023-02-01T00:47:29;100101.50;;;4.68;95.68
68859;BME280;55864;49.238;8.092;2023-02-01T00:49:29;100107.56;;;4.68;95.60
68859;BME280;55864;49.238;8.092;2023-02-01T00:51:30;100104.75;;;4.71;95.84
68859;BME280;55864;49.238;8.092;2023-02-01T00:53:32;100109.06;;;4.72;95.83
68859;BME280;55864;49.238;8.092;2023-02-01T00:55:34;100108.13;;;4.73;95.52
68859;BME280;55864;49.238;8.092;2023-02-01T00:57:34;100108.88;;;4.75;95.25
68859;BME280;55864;49.238;8.092;2023-02-01T00:59:35;100114.06;;;4.75;94.78
68859;BME280;55864;49.238;8.092;2023-02-01T01:01:35;100118.16;;;4.79;95.05
68859;BME280;55864;49.238;8.092;2023-02-01T01:03:38;100105.91;;;4.82;95.05
68859;BME280;55864;49.238;8.092;2023-02-01T01:05:39;100104.91;;;4.84;94.75
68859;BME280;55864;49.238;8.092;2023-02-01T01:07:39;100097.00;;;4.86;95.22
68859;BME280;55864;49.238;8.092;2023-02-01T01:09:41;100098.66;;;4.87;94.80
68859;BME280;55864;49.238;8.092;2023-02-01T01:11:42;100091.78;;;4.86;94.81
68859;BME280;55864;49.238;8.092;2023-02-01T01:13:43;100094.50;;;4.84;94.87
68859;BME280;55864;49.238;8.092;2023-02-01T01:15:43;100097.00;;;4.86;94.73
68859;BME280;55864;49.238;8.092;2023-02-01T01:17:44;100090.84;;;4.87;94.93
68859;BME280;55864;49.238;8.092;2023-02-01T01:19:44;100096.16;;;4.85;95.05
68859;BME280;55864;49.238;8.092;2023-02-01T01:21:45;100083.97;;;4.86;95.04
68859;BME280;55864;49.238;8.092;2023-02-01T01:23:46;100088.25;;;4.87;95.36
68859;BME280;55864;49.238;8.092;2023-02-01T01:25:49;100075.22;;;4.87;95.18
68859;BME280;55864;49.238;8.092;2023-02-01T01:27:49;100077.84;;;4.87;94.20
68859;BME280;55864;49.238;8.092;2023-02-01T01:29:50;100087.44;;;4.86;94.44
68859;BME280;55864;49.238;8.092;2023-02-01T01:31:51;100079.63;;;4.86;94.08
68859;BME280;55864;49.238;8.092;2023-02-01T01:33:53;100086.50;;;4.87;94.64
68859;BME280;55864;49.238;8.092;2023-02-01T01:35:53;100069.97;;;4.88;94.95
68859;BME280;55864;49.238;8.092;2023-02-01T01:37:54;100074.13;;;4.91;94.27
68859;BME280;55864;49.238;8.092;2023-02-01T01:39:55;100084.53;;;4.91;93.88
68859;BME280;55864;49.238;8.092;2023-02-01T01:41:57;100082.88;;;4.90;94.58
68859;BME280;55864;49.238;8.092;2023-02-01T01:44:03;100071.63;;;4.89;93.60
68859;BME280;55864;49.238;8.092;2023-02-01T01:46:04;100069.13;;;4.88;93.50
68859;BME280;55864;49.238;8.092;2023-02-01T01:48:07;100075.31;;;4.85;94.30
68859;BME280;55864;49.238;8.092;2023-02-01T01:50:13;100066.50;;;4.88;93.57
68859;BME280;55864;49.238;8.092;2023-02-01T01:52:14;100070.78;;;4.89;93.88
68859;BME280;55864;49.238;8.092;2023-02-01T01:54:17;100074.13;;;4.91;93.45
68859;BME280;55864;49.238;8.092;2023-02-01T01:56:18;100069.88;;;4.90;93.65
68859;BME280;55864;49.238;8.092;2023-02-01T01:58:25;100065.56;;;4.89;93.89
68859;BME280;55864;49.238;8.092;2023-02-01T02:00:26;100053.59;;;4.86;94.02
68859;BME280;55864;49.238;8.092;2023-02-01T02:02:28;100043.94;;;4.88;94.29
68859;BME280;55864;49.238;8.092;2023-02-01T02:04:30;100038.72;;;4.88;93.89
68859;BME280;55864;49.238;8.092;2023-02-01T02:06:37;100047.28;;;4.90;93.47
68859;BME280;55864;49.238;8.092;2023-02-01T02:08:39;100046.44;;;4.90;94.35
68859;BME280;55864;49.238;8.092;2023-02-01T02:10:42;100043.09;;;4.88;94.05
68859;BME280;55864;49.238;8.092;2023-02-01T02:12:45;100059.44;;;4.90;94.14
68859;BME280;55864;49.238;8.092;2023-02-01T02:14:47;100056.84;;;4.90;93.61
68859;BME280;55864;49.238;8.092;2023-02-01T02:17:07;100051.81;;;4.87;93.70
68859;BME280;55864;49.238;8.092;2023-02-01T02:21:56;100052.66;;;4.87;94.63
68859;BME280;55864;49.238;8.092;2023-02-01T02:24:34;100057.75;;;4.89;94.09
68859;BME280;55864;49.238;8.092;2023-02-01T02:27:02;100058.50;;;4.91;93.87
68859;BME280;55864;49.238;8.092;2023-02-01T02:34:27;100058.34;;;4.94;93.83
68859;BME280;55864;49.238;8.092;2023-02-01T02:36:38;100047.84;;;4.95;94.09
68859;BME280;55864;49.238;8.092;2023-02-01T02:38:49;100050.44;;;4.95;94.68
68859;BME280;55864;49.238;8.092;2023-02-01T02:40:57;100054.63;;;4.98;93.95
68859;BME280;55864;49.238;8.092;2023-02-01T02:43:06;100061.50;;;4.99;94.19
68859;BME280;55864;49.238;8.092;2023-02-01T02:45:16;100067.44;;;5.01;94.55
68859;BME280;55864;49.238;8.092;2023-02-01T02:49:44;100046.72;;;4.99;94.73
68859;BME280;55864;49.238;8.092;2023-02-01T02:51:52;100031.38;;;4.95;94.53
68859;BME280;55864;49.238;8.092;2023-02-01T02:53:58;100020.13;;;4.94;94.99
68859;BME280;55864;49.238;8.092;2023-02-01T02:56:02;100006.28;;;4.94;95.77
68859;BME280;55864;49.238;8.092;2023-02-01T02:58:05;100006.44;;;4.91;95.27
68859;BME280;55864;49.238;8.092;2023-02-01T03:00:09;99991.69;;;4.91;95.23
68859;BME280;55864;49.238;8.092;2023-02-01T03:02:12;99990.09;;;4.89;95.52
68859;BME280;55864;49.238;8.092;2023-02-01T03:04:13;99986.69;;;4.88;95.68
68859;BME280;55864;49.238;8.092;2023-02-01T03:06:17;99979.97;;;4.84;96.72
68859;BME280;55864;49.238;8.092;2023-02-01T03:08:18;99981.75;;;4.84;96.96
68859;BME280;55864;49.238;8.092;2023-02-01T03:10:24;99985.19;;;4.84;96.21
68859;BME280;55864;49.238;8.092;2023-02-01T03:12:27;99987.78;;;4.84;96.09
68859;BME280;55864;49.238;8.092;2023-02-01T03:14:28;99993.75;;;4.86;96.15
68859;BME280;55864;49.238;8.092;2023-02-01T03:16:33;99995.41;;;4.87;96.63
68859;BME280;55864;49.238;8.092;2023-02-01T03:18:39;99992.88;;;4.86;96.42
68859;BME280;55864;49.238;8.092;2023-02-01T03:20:44;99988.59;;;4.85;96.90
68859;BME280;55864;49.238;8.092;2023-02-01T03:22:49;99988.59;;;4.85;97.14
68859;BME280;55864;49.238;8.092;2023-02-01T03:24:54;99982.47;;;4.86;96.36
68859;BME280;55864;49.238;8.092;2023-02-01T03:26:55;99991.94;;;4.87;95.85
68859;BME280;55864;49.238;8.092;2023-02-01T03:29:03;99993.63;;;4.88;96.05
68859;BME280;55864;49.238;8.092;2023-02-01T03:31:06;99998.84;;;4.88;96.14
68859;BME280;55864;49.238;8.092;2023-02-01T03:33:09;100008.31;;;4.89;96.52
68859;BME280;55864;49.238;8.092;2023-02-01T03:35:13;100022.06;;;4.91;96.21
68859;BME280;55864;49.238;8.092;2023-02-01T03:37:17;100016.75;;;4.92;96.77
68859;BME280;55864;49.238;8.092;2023-02-01T03:39:27;100013.34;;;4.92;96.08
68859;BME280;55864;49.238;8.092;2023-02-01T03:41:35;100013.34;;;4.92;96.12
68859;BME280;55864;49.238;8.092;2023-02-01T03:43:45;100009.91;;;4.91;96.21
68859;BME280;55864;49.238;8.092;2023-02-01T03:45:51;100010.75;;;4.92;95.97
68859;BME280;55864;49.238;8.092;2023-02-01T03:47:55;100013.34;;;4.92;96.71
68859;BME280;55864;49.238;8.092;2023-02-01T03:50:01;100004.69;;;4.91;96.27
68859;BME280;55864;49.238;8.092;2023-02-01T03:52:05;100023.94;;;4.89;96.58
68859;BME280;55864;49.238;8.092;2023-02-01T03:54:06;100030.72;;;4.91;96.75
68859;BME280;55864;49.238;8.092;2023-02-01T03:56:13;100029.78;;;4.92;96.40
68859;BME280;55864;49.238;8.092;2023-02-01T03:58:15;100035.09;;;4.91;96.50
68859;BME280;55864;49.238;8.092;2023-02-01T04:00:19;100036.69;;;4.93;95.81
68859;BME280;55864;49.238;8.092;2023-02-01T04:02:20;100044.47;;;4.93;95.95
68859;BME280;55864;49.238;8.092;2023-02-01T04:04:20;100041.03;;;4.93;95.69
68859;BME280;55864;49.238;8.092;2023-02-01T04:06:24;100030.63;;;4.93;95.63
68859;BME280;55864;49.238;8.092;2023-02-01T04:08:25;100034.16;;;4.92;96.01
68859;BME280;55864;49.238;8.092;2023-02-01T04:10:26;100038.53;;;4.91;96.03
68859;BME280;55864;49.238;8.092;2023-02-01T04:12:28;100019.47;;;4.91;95.39
68859;BME280;55864;49.238;8.092;2023-02-01T04:14:29;100026.38;;;4.92;95.69
68859;BME280;55864;49.238;8.092;2023-02-01T04:16:30;100010.75;;;4.92;95.81
68859;BME280;55864;49.238;8.092;2023-02-01T04:18:30;100003.75;;;4.92;95.13
68859;BME280;55864;49.238;8.092;2023-02-01T04:20:31;100005.44;;;4.93;95.24
68859;BME280;55864;49.238;8.092;2023-02-01T04:22:32;100003.84;;;4.91;95.33
68859;BME280;55864;49.238;8.092;2023-02-01T04:24:33;100001.25;;;4.91;95.33
68859;BME280;55864;49.238;8.092;2023-02-01T04:26:34;99990.03;;;4.90;95.37
68859;BME280;55864;49.238;8.092;2023-02-01T04:28:36;100003.03;;;4.90;95.89
68859;BME280;55864;49.238;8.092;2023-02-01T04:30:36;100002.28;;;4.88;95.05
68859;BME280;55864;49.238;8.092;2023-02-01T04:32:37;100009.16;;;4.89;95.49
68859;BME280;55864;49.238;8.092;2023-02-01T04:34:38;100017.06;;;4.88;95.29
68859;BME280;55864;49.238;8.092;2023-02-01T04:36:41;100023.28;;;4.85;94.82
68859;BME280;55864;49.238;8.092;2023-02-01T04:38:44;100019.84;;;4.85;95.17
68859;BME280;55864;49.238;8.092;2023-02-01T04:40:47;100041.50;;;4.85;94.84
68859;BME280;55864;49.238;8.092;2023-02-01T04:42:47;100033.59;;;4.87;94.05
68859;BME280;55864;49.238;8.092;2023-02-01T04:44:49;100037.03;;;4.87;94.52
68859;BME280;55864;49.238;8.092;2023-02-01T04:46:50;100030.97;;;4.87;94.34
68859;BME280;55864;49.238;8.092;2023-02-01T04:48:50;100038.63;;;4.90;94.51
68859;BME280;55864;49.238;8.092;2023-02-01T04:50:51;100023.75;;;4.92;94.07
68859;BME280;55864;49.238;8.092;2023-02-01T04:52:52;100008.16;;;4.92;94.62
68859;BME280;55864;49.238;8.092;2023-02-01T04:54:52;100004.59;;;4.93;94.19
68859;BME280;55864;49.238;8.092;2023-02-01T04:56:53;100005.34;;;4.95;94.34
68859;BME280;55864;49.238;8.092;2023-02-01T04:58:53;100012.22;;;4.96;94.32
68859;BME280;55864;49.238;8.092;2023-02-01T05:00:55;100019.94;;;4.97;94.79
68859;BME280;55864;49.238;8.092;2023-02-01T05:02:56;100009.63;;;4.96;94.77
68859;BME280;55864;49.238;8.092;2023-02-01T05:04:56;100026.91;;;4.97;94.80
68859;BME280;55864;49.238;8.092;2023-02-01T05:06:57;100024.31;;;4.97;94.51
68859;BME280;55864;49.238;8.092;2023-02-01T05:08:57;100028.66;;;4.96;95.29
68859;BME280;55864;49.238;8.092;2023-02-01T05:10:58;100035.56;;;4.97;94.61
68859;BME280;55864;49.238;8.092;2023-02-01T05:12:58;100027.66;;;4.99;95.31
68859;BME280;55864;49.238;8.092;2023-02-01T05:14:59;100031.19;;;4.98;94.89
68859;BME280;55864;49.238;8.092;2023-02-01T05:17:01;100020.69;;;4.99;95.64
68859;BME280;55864;49.238;8.092;2023-02-01T05:19:01;100031.91;;;5.00;95.26
68859;BME280;55864;49.238;8.092;2023-02-01T05:21:02;100044.88;;;5.01;95.32
68859;BME280;55864;49.238;8.092;2023-02-01T05:23:03;100038.63;;;5.04;95.10
68859;BME280;55864;49.238;8.092;2023-02-01T05:25:04;100036.00;;;5.04;95.09
68859;BME280;55864;49.238;8.092;2023-02-01T05:27:05;100036.97;;;5.03;94.74
68859;BME280;55864;49.238;8.092;2023-02-01T05:29:06;100030.06;;;5.02;94.64
68859;BME280;55864;49.238;8.092;2023-02-01T05:31:09;100018.72;;;5.03;94.50
68859;BME280;55864;49.238;8.092;2023-02-01T05:33:11;100020.50;;;5.02;94.89
68859;BME280;55864;49.238;8.092;2023-02-01T05:35:12;100017.03;;;5.02;95.12
68859;BME280;55864;49.238;8.092;2023-02-01T05:37:12;100022.25;;;5.02;94.62
68859;BME280;55864;49.238;8.092;2023-02-01T05:39:13;100024.78;;;5.03;95.16
68859;BME280;55864;49.238;8.092;2023-02-01T05:41:13;100027.28;;;5.05;95.12
68859;BME280;55864;49.238;8.092;2023-02-01T05:43:14;100028.94;;;5.06;95.37
68859;BME280;55864;49.238;8.092;2023-02-01T05:45:15;100031.44;;;5.07;95.10
68859;BME280;55864;49.238;8.092;2023-02-01T05:47:15;100027.28;;;5.05;93.82
68859;BME280;55864;49.238;8.092;2023-02-01T05:49:17;100030.63;;;5.07;93.69
68859;BME280;55864;49.238;8.092;2023-02-01T05:51:18;100025.59;;;5.04;93.57
68859;BME280;55864;49.238;8.092;2023-02-01T05:53:18;100010.19;;;5.01;93.80
68859;BME280;55864;49.238;8.092;2023-02-01T05:55:19;100018.00;;;5.01;92.67
68859;BME280;55864;49.238;8.092;2023-02-01T05:57:19;100004.97;;;5.01;93.25
68859;BME280;55864;49.238;8.092;2023-02-01T05:59:20;100018.84;;;5.01;92.82
68859;BME280;55864;49.238;8.092;2023-02-01T06:01:20;100005.50;;;5.06;95.44
68859;BME280;55864;49.238;8.092;2023-02-01T06:03:21;100007.75;;;5.12;97.28
68859;BME280;55864;49.238;8.092;2023-02-01T06:05:23;100006.44;;;5.19;97.88
68859;BME280;55864;49.238;8.092;2023-02-01T06:07:23;100002.63;;;5.10;95.69
68859;BME280;55864;49.238;8.092;2023-02-01T06:09:24;99998.34;;;5.09;95.14
68859;BME280;55864;49.238;8.092;2023-02-01T06:11:25;100003.66;;;5.08;93.99
68859;BME280;55864;49.238;8.092;2023-02-01T06:13:26;99997.81;;;5.04;93.73
68859;BME280;55864;49.238;8.092;2023-02-01T06:15:26;99999.75;;;5.01;93.13
68859;BME280;55864;49.238;8.092;2023-02-01T06:17:27;99999.88;;;4.99;92.94
68859;BME280;55864;49.238;8.092;2023-02-01T06:19:27;100010.28;;;4.99;92.37
68859;BME280;55864;49.238;8.092;2023-02-01T06:21:29;100017.88;;;5.02;92.37
68859;BME280;55864;49.238;8.092;2023-02-01T06:23:30;100012.78;;;5.01;91.44
68859;BME280;55864;49.238;8.092;2023-02-01T06:25:31;100014.44;;;5.02;91.14
68859;BME280;55864;49.238;8.092;2023-02-01T06:27:32;100018.00;;;5.01;91.05
68859;BME280;55864;49.238;8.092;2023-02-01T06:29:32;100014.53;;;5.00;90.71
68859;BME280;55864;49.238;8.092;2023-02-01T06:31:33;100021.50;;;5.00;90.66
68859;BME280;55864;49.238;8.092;2023-02-01T06:33:34;100012.88;;;4.99;90.15
68859;BME280;55864;49.238;8.092;2023-02-01T06:35:35;100024.09;;;5.00;90.32
68859;BME280;55864;49.238;8.092;2023-02-01T06:37:37;100015.66;;;4.96;90.06
68859;BME280;55864;49.238;8.092;2023-02-01T06:39:38;100011.41;;;4.95;89.86
68859;BME280;55864;49.238;8.092;2023-02-01T06:41:38;100013.16;;;4.95;90.27
68859;BME280;55864;49.238;8.092;2023-02-01T06:43:39;100008.88;;;4.94;89.85
68859;BME280;55864;49.238;8.092;2023-02-01T06:45:40;100016.88;;;4.91;88.57
68859;BME280;55864;49.238;8.092;2023-02-01T06:47:40;100016.97;;;4.89;89.29
68859;BME280;55864;49.238;8.092;2023-02-01T06:49:41;100016.88;;;4.91;89.54
68859;BME280;55864;49.238;8.092;2023-02-01T06:51:41;100018.56;;;4.92;89.66
68859;BME280;55864;49.238;8.092;2023-02-01T06:53:43;100020.13;;;4.94;89.73
68859;BME280;55864;49.238;8.092;2023-02-01T06:55:51;100020.13;;;4.94;90.60
68859;BME280;55864;49.238;8.092;2023-02-01T06:57:55;100026.91;;;4.97;90.93
68859;BME280;55864;49.238;8.092;2023-02-01T06:59:56;100030.47;;;4.96;90.85
68859;BME280;55864;49.238;8.092;2023-02-01T07:01:56;100030.47;;;4.96;90.96
68859;BME280;55864;49.238;8.092;2023-02-01T07:03:57;100026.00;;;4.98;91.41
68859;BME280;55864;49.238;8.092;2023-02-01T07:05:58;100018.09;;;4.99;91.79
68859;BME280;55864;49.238;8.092;2023-02-01T07:07:58;100015.66;;;4.96;91.06
68859;BME280;55864;49.238;8.092;2023-02-01T07:10:00;100033.06;;;4.96;91.73
68859;BME280;55864;49.238;8.092;2023-02-01T07:12:01;100021.69;;;4.97;91.06
68859;BME280;55864;49.238;8.092;2023-02-01T07:14:01;100022.44;;;4.99;91.04
68859;BME280;55864;49.238;8.092;2023-02-01T07:16:04;100032.00;;;4.98;91.65
68859;BME280;55864;49.238;8.092;2023-02-01T07:18:05;100036.41;;;4.98;91.11
68859;BME280;55864;49.238;8.092;2023-02-01T07:20:06;100046.63;;;5.01;90.87
68859;BME280;55864;49.238;8.092;2023-02-01T07:22:07;100046.72;;;4.99;91.42
68859;BME280;55864;49.238;8.092;2023-02-01T07:24:08;100042.25;;;5.01;91.14
68859;BME280;55864;49.238;8.092;2023-02-01T07:26:12;100050.88;;;5.02;91.20
68859;BME280;55864;49.238;8.092;2023-02-01T07:28:12;100031.09;;;4.99;90.54
68859;BME280;55864;49.238;8.092;2023-02-01T07:30:13;100038.81;;;5.01;90.24
68859;BME280;55864;49.238;8.092;2023-02-01T07:32:13;100031.19;;;4.98;90.69
68859;BME280;55864;49.238;8.092;2023-02-01T07:34:14;100033.81;;;4.98;90.29
68859;BME280;55864;49.238;8.092;2023-02-01T07:36:16;100031.91;;;5.00;89.37
68859;BME280;55864;49.238;8.092;2023-02-01T07:38:17;100020.59;;;5.01;89.82
68859;BME280;55864;49.238;8.092;2023-02-01T07:40:18;100025.91;;;4.99;90.07
68859;BME280;55864;49.238;8.092;2023-02-01T07:42:20;100021.50;;;5.00;90.32
68859;BME280;55864;49.238;8.092;2023-02-01T07:44:20;100019.75;;;5.00;89.61
68859;BME280;55864;49.238;8.092;2023-02-01T07:46:21;100022.34;;;5.00;90.21
68859;BME280;55864;49.238;8.092;2023-02-01T07:48:23;100011.94;;;5.00;90.11
68859;BME280;55864;49.238;8.092;2023-02-01T07:50:23;100024.03;;;5.01;90.31
68859;BME280;55864;49.238;8.092;2023-02-01T07:52:24;100014.44;;;5.02;89.80
68859;BME280;55864;49.238;8.092;2023-02-01T07:54:27;100007.56;;;5.01;89.81
68859;BME280;55864;49.238;8.092;2023-02-01T07:56:28;100012.78;;;5.01;89.30
68859;BME280;55864;49.238;8.092;2023-02-01T07:58:30;100011.94;;;5.00;90.12
68859;BME280;55864;49.238;8.092;2023-02-01T08:00:30;100026.72;;;5.00;90.08
68859;BME280;55864;49.238;8.092;2023-02-01T08:02:31;100033.59;;;5.01;90.08
68859;BME280;55864;49.238;8.092;2023-02-01T08:04:31;100055.28;;;5.01;90.24
68859;BME280;55864;49.238;8.092;2023-02-01T08:06:33;100042.44;;;4.98;89.23
68859;BME280;55864;49.238;8.092;2023-02-01T08:08:34;100046.72;;;4.99;89.17
68859;BME280;55864;49.238;8.092;2023-02-01T08:10:34;100045.78;;;5.00;89.57
68859;BME280;55864;49.238;8.092;2023-02-01T08:12:35;100049.31;;;4.99;88.72
68859;BME280;55864;49.238;8.092;2023-02-01T08:14:37;100040.47;;;5.02;89.00
68859;BME280;55864;49.238;8.092;2023-02-01T08:16:37;100048.22;;;5.03;89.42
68859;BME280;55864;49.238;8.092;2023-02-01T08:18:39;100051.72;;;5.02;88.89
68859;BME280;55864;49.238;8.092;2023-02-01T08:20:40;100057.78;;;5.03;89.13
68859;BME280;55864;49.238;8.092;2023-02-01T08:22:40;100071.66;;;5.03;88.89
68859;BME280;55864;49.238;8.092;2023-02-01T08:24:41;100080.28;;;5.04;87.98
68859;BME280;55864;49.238;8.092;2023-02-01T08:26:41;100095.88;;;5.04;88.19
68859;BME280;55864;49.238;8.092;2023-02-01T08:28:43;100090.69;;;5.04;88.74
68859;BME280;55864;49.238;8.092;2023-02-01T08:30:45;100092.38;;;5.05;88.20
68859;BME280;55864;49.238;8.092;2023-02-01T08:32:46;100105.38;;;5.05;88.92
68859;BME280;55864;49.238;8.092;2023-02-01T08:34:46;100093.22;;;5.05;89.24
68859;BME280;55864;49.238;8.092;2023-02-01T08:36:47;100082.88;;;5.04;88.59
68859;BME280;55864;49.238;8.092;2023-02-01T08:38:48;100086.31;;;5.04;88.82
68859;BME280;55864;49.238;8.092;2023-02-01T08:40:48;100084.56;;;5.05;89.23
68859;BME280;55864;49.238;8.092;2023-02-01T08:42:50;100097.56;;;5.05;88.85
68859;BME280;55864;49.238;8.092;2023-02-01T08:44:52;100088.72;;;5.07;89.46
68859;BME280;55864;49.238;8.092;2023-02-01T08:46:54;100086.97;;;5.08;89.65
68859;BME280;55864;49.238;8.092;2023-02-01T08:48:54;100092.06;;;5.09;89.44
68859;BME280;55864;49.238;8.092;2023-02-01T08:50:55;100101.56;;;5.10;88.33
68859;BME280;55864;49.238;8.092;2023-02-01T08:52:56;100095.63;;;5.08;89.13
68859;BME280;55864;49.238;8.092;2023-02-01T08:54:56;100089.47;;;5.09;88.65
68859;BME280;55864;49.238;8.092;2023-02-01T08:56:57;100102.44;;;5.11;88.85
68859;BME280;55864;49.238;8.092;2023-02-01T08:58:57;100105.09;;;5.09;88.39
68859;BME280;55864;49.238;8.092;2023-02-01T09:01:02;100109.38;;;5.10;87.51
68859;BME280;55864;49.238;8.092;2023-02-01T09:03:04;100105.84;;;5.11;87.50
68859;BME280;55864;49.238;8.092;2023-02-01T09:05:06;100116.09;;;5.14;87.20
68859;BME280;55864;49.238;8.092;2023-02-01T09:07:06;100112.53;;;5.15;86.90
68859;BME280;55864;49.238;8.092;2023-02-01T09:09:07;100104.63;;;5.17;86.93
68859;BME280;55864;49.238;8.092;2023-02-01T09:11:11;100110.59;;;5.19;86.70
68859;BME280;55864;49.238;8.092;2023-02-01T09:13:12;100099.34;;;5.18;86.59
68859;BME280;55864;49.238;8.092;2023-02-01T09:15:13;100090.59;;;5.19;87.19
68859;BME280;55864;49.238;8.092;2023-02-01T09:17:13;100094.91;;;5.20;86.88
68859;BME280;55864;49.238;8.092;2023-02-01T09:19:15;100093.19;;;5.19;86.55
68859;BME280;55864;49.238;8.092;2023-02-01T09:21:16;100096.66;;;5.20;85.33
68859;BME280;55864;49.238;8.092;2023-02-01T09:23:16;100091.44;;;5.20;86.28
68859;BME280;55864;49.238;8.092;2023-02-01T09:25:17;100091.44;;;5.20;85.84
68859;BME280;55864;49.238;8.092;2023-02-01T09:27:18;100104.38;;;5.21;86.29
68859;BME280;55864;49.238;8.092;2023-02-01T09:29:18;100104.38;;;5.21;85.96
68859;BME280;55864;49.238;8.092;2023-02-01T09:31:19;100116.38;;;5.24;85.79
68859;BME280;55864;49.238;8.092;2023-02-01T09:33:19;100105.13;;;5.23;85.37
68859;BME280;55864;49.238;8.092;2023-02-01T09:35:21;100111.28;;;5.22;85.73
68859;BME280;55864;49.238;8.092;2023-02-01T09:37:22;100118.03;;;5.25;85.83
68859;BME280;55864;49.238;8.092;2023-02-01T09:39:22;100116.28;;;5.25;84.69
68859;BME280;55864;49.238;8.092;2023-02-01T09:41:32;100124.00;;;5.27;85.51
68859;BME280;55864;49.238;8.092;2023-02-01T09:43:41;100130.88;;;5.28;85.05
68859;BME280;55864;49.238;8.092;2023-02-01T09:45:51;100136.84;;;5.30;85.49
68859;BME280;55864;49.238;8.092;2023-02-01T09:47:55;100157.59;;;5.31;84.67
68859;BME280;55864;49.238;8.092;2023-02-01T09:50:01;100160.09;;;5.33;85.20
68859;BME280;55864;49.238;8.092;2023-02-01T09:52:06;100158.41;;;5.32;84.59
68859;BME280;55864;49.238;8.092;2023-02-01T09:54:11;100161.94;;;5.31;84.70
68859;BME280;55864;49.238;8.092;2023-02-01T09:56:15;100165.50;;;5.30;84.37
68859;BME280;55864;49.238;8.092;2023-02-01T09:58:22;100165.50;;;5.30;84.63
68859;BME280;55864;49.238;8.092;2023-02-01T10:00:26;100168.75;;;5.33;84.99
68859;BME280;55864;49.238;8.092;2023-02-01T10:02:27;100164.34;;;5.34;84.55
68859;BME280;55864;49.238;8.092;2023-02-01T10:04:28;100176.47;;;5.35;84.68
68859;BME280;55864;49.238;8.092;2023-02-01T10:06:50;100165.19;;;5.34;83.84
68859;BME280;55864;49.238;8.092;2023-02-01T10:09:18;100169.50;;;5.35;83.48
68859;BME280;55864;49.238;8.092;2023-02-01T10:11:29;100161.59;;;5.37;83.44
68859;BME280;55864;49.238;8.092;2023-02-01T10:13:43;100170.97;;;5.39;83.51
68859;BME280;55864;49.238;8.092;2023-02-01T10:15:55;100177.97;;;5.39;83.94
68859;BME280;55864;49.238;8.092;2023-02-01T10:18:23;100183.06;;;5.40;83.50
68859;BME280;55864;49.238;8.092;2023-02-01T10:20:44;100171.81;;;5.40;83.02
68859;BME280;55864;49.238;8.092;2023-02-01T10:22:54;100172.75;;;5.39;83.45
68859;BME280;55864;49.238;8.092;2023-02-01T10:25:04;100170.16;;;5.39;83.23
68859;BME280;55864;49.238;8.092;2023-02-01T10:27:17;100171.81;;;5.40;83.49
68859;BME280;55864;49.238;8.092;2023-02-01T10:29:22;100176.91;;;5.41;83.33
68859;BME280;55864;49.238;8.092;2023-02-01T10:31:26;100176.91;;;5.41;82.73
68859;BME280;55864;49.238;8.092;2023-02-01T10:33:30;100169.94;;;5.42;83.50
68859;BME280;55864;49.238;8.092;2023-02-01T10:35:33;100182.06;;;5.43;82.72
68859;BME280;55864;49.238;8.092;2023-02-01T10:37:34;100182.72;;;5.46;82.98
68859;BME280;55864;49.238;8.092;2023-02-01T10:39:35;100192.38;;;5.44;83.02
68859;BME280;55864;49.238;8.092;2023-02-01T10:41:39;100193.31;;;5.43;82.37
68859;BME280;55864;49.238;8.092;2023-02-01T10:43:41;100194.03;;;5.45;82.62
68859;BME280;55864;49.238;8.092;2023-02-01T10:45:42;100190.63;;;5.45;82.42
68859;BME280;55864;49.238;8.092;2023-02-01T10:47:43;100192.28;;;5.46;82.13
68859;BME280;55864;49.238;8.092;2023-02-01T10:49:49;100186.22;;;5.45;81.91
68859;BME280;55864;49.238;8.092;2023-02-01T10:51:55;100192.28;;;5.46;81.38
68859;BME280;55864;49.238;8.092;2023-02-01T10:54:00;100184.28;;;5.49;81.72
68859;BME280;55864;49.238;8.092;2023-02-01T10:56:06;100179.00;;;5.50;82.12
68859;BME280;55864;49.238;8.092;2023-02-01T10:58:18;100176.28;;;5.52;82.14
68859;BME280;55864;49.238;8.092;2023-02-01T11:00:20;100161.66;;;5.49;81.31